Time;durP1;ratioP1;P1;durP2;ratioP2;P2;SDS_P1;SDS_P2;PMS_P1;PMS_P2;Temp;Humidity;BMP_temperature;BMP_pressure;BME280_temperature;BME280_humidity;BME280_pressure;Samples;Min_cycle;Max_cycle;Signal;HPM_P1;HPM_P2
2023/05/06 04:11:15;;;;;;;;;;;;;;;18.62;62.68;96880.88;4247005;27;10199;-70
2023/05/06 04:13:18;;;;;;;;;;;;;;;18.83;62.06;96871.34;4247263;27;5674;-70
2023/05/06 04:15:21;;;;;;;;;;;;;;;19.08;61.89;96882.47;4247230;27;5882;-70
2023/05/06 04:17:24;;;;;;;;;;;;;;;19.24;61.57;96878.13;4246877;27;5745;-70
2023/05/06 04:19:27;;;;;;;;;;;;;;;19.36;61.39;96881.53;4247012;27;5836;-70
2023/05/06 04:21:30;;;;;;;;;;;;;;;19.46;61.26;96886.22;4247295;27;5752;-70
2023/05/06 04:23:33;;;;;;;;;;;;;;;19.53;61.11;96886.06;4247409;27;5738;-70
2023/05/06 04:25:36;;;;;;;;;;;;;;;19.60;61.08;96886.72;4247349;27;5642;-70
2023/05/06 04:27:41;;;;;;;;;;;;;;;19.65;60.88;96884.91;4247050;27;5729;-70
2023/05/06 04:29:43;;;;;;;;;;;;;;;19.68;60.57;96892.44;4246936;27;5092;-71
2023/05/06 04:31:46;;;;;;;;;;;;;;;19.72;60.62;96890.91;4247031;27;5725;-70
2023/05/06 04:33:52;;;;;;;;;;;;;;;19.77;60.48;96888.28;4247012;27;5881;-70
2023/05/06 04:35:55;;;;;;;;;;;;;;;19.82;60.63;96886.72;4247014;27;5661;-70
2023/05/06 04:37:58;;;;;;;;;;;;;;;19.83;60.20;96891.03;4246800;27;5088;-70
2023/05/06 04:40:01;;;;;;;;;;;;;;;19.85;60.41;96891.59;4247165;27;5737;-71
2023/05/06 04:42:04;;;;;;;;;;;;;;;19.85;60.57;96894.28;4247058;27;5765;-71
2023/05/06 04:44:08;;;;;;;;;;;;;;;19.88;60.25;96891.09;4247075;27;5642;-71
2023/05/06 04:46:11;;;;;;;;;;;;;;;19.86;60.38;96899.41;4238323;27;5646;-71
2023/05/06 04:48:16;;;;;;;;;;;;;;;19.88;60.45;96902.63;4247002;27;5638;-71
2023/05/06 04:50:19;;;;;;;;;;;;;;;19.88;60.31;96909.88;4244518;27;5959;-71
2023/05/06 04:52:21;;;;;;;;;;;;;;;19.90;60.43;96910.44;4245803;27;5759;-71
2023/05/06 04:54:24;;;;;;;;;;;;;;;19.89;60.08;96914.19;4244424;27;5764;-71
2023/05/06 04:56:27;;;;;;;;;;;;;;;19.91;60.03;96902.13;4247872;27;5774;-71
2023/05/06 04:58:30;;;;;;;;;;;;;;;19.94;60.20;96912.38;4246414;27;5780;-71
2023/05/06 05:00:34;;;;;;;;;;;;;;;19.98;60.15;96910.00;4242925;27;5653;-71
2023/05/06 05:02:37;;;;;;;;;;;;;;;20.00;60.00;96915.91;4245533;27;5099;-71
2023/05/06 05:04:40;;;;;;;;;;;;;;;20.02;59.84;96908.44;4245433;27;5737;-72
2023/05/06 05:06:44;;;;;;;;;;;;;;;20.04;59.84;96908.97;4238132;27;5645;-71
2023/05/06 05:08:46;;;;;;;;;;;;;;;20.06;59.72;96909.56;4242454;27;5688;-71
2023/05/06 05:10:49;;;;;;;;;;;;;;;20.08;59.49;96907.44;4230524;27;5821;-70
2023/05/06 05:12:52;;;;;;;;;;;;;;;20.10;59.80;96907.19;4226357;28;5669;-71
2023/05/06 05:14:55;;;;;;;;;;;;;;;20.10;59.68;96909.88;4231251;28;6650;-71
2023/05/06 05:16:59;;;;;;;;;;;;;;;20.10;59.76;96916.03;4231568;28;5659;-71
2023/05/06 05:19:02;;;;;;;;;;;;;;;20.11;59.36;96914.19;4233855;28;6355;-71
2023/05/06 05:21:06;;;;;;;;;;;;;;;20.11;59.40;96919.53;4235995;28;5813;-71
2023/05/06 05:23:08;;;;;;;;;;;;;;;20.11;59.73;96924.91;4231032;28;5683;-71
2023/05/06 05:25:11;;;;;;;;;;;;;;;20.12;59.42;96921.16;4225524;28;5593;-71
2023/05/06 05:27:15;;;;;;;;;;;;;;;20.12;59.48;96921.97;4232894;27;5646;-71
2023/05/06 05:29:17;;;;;;;;;;;;;;;20.13;59.57;96926.28;4232511;27;5649;-71
2023/05/06 05:31:20;;;;;;;;;;;;;;;20.13;59.23;96923.59;4229838;28;5729;-71
2023/05/06 05:33:25;;;;;;;;;;;;;;;20.14;59.25;96925.22;4230074;27;5663;-82
2023/05/06 05:35:28;;;;;;;;;;;;;;;20.15;59.43;96924.16;4221803;28;5806;-81
2023/05/06 05:37:31;;;;;;;;;;;;;;;20.16;59.14;96931.16;4232740;28;5834;-80
2023/05/06 05:39:34;;;;;;;;;;;;;;;20.13;59.20;96923.59;4222785;28;5721;-81
2023/05/06 05:41:37;;;;;;;;;;;;;;;20.09;59.04;96924.34;4236225;28;5638;-81
2023/05/06 05:43:40;;;;;;;;;;;;;;;20.06;58.91;96923.00;4236298;28;6455;-80
2023/05/06 05:45:43;;;;;;;;;;;;;;;20.08;59.01;96926.22;4236146;28;5725;-80
2023/05/06 05:47:45;;;;;;;;;;;;;;;20.09;58.60;96922.47;4236548;28;5669;-81
2023/05/06 05:49:49;;;;;;;;;;;;;;;20.16;58.72;96922.28;4236015;28;5757;-81
2023/05/06 05:51:52;;;;;;;;;;;;;;;20.26;58.39;96919.72;4236305;28;5658;-81
2023/05/06 05:53:55;;;;;;;;;;;;;;;20.36;58.23;96926.00;4236449;28;5663;-80
2023/05/06 05:55:58;;;;;;;;;;;;;;;20.49;58.25;96929.38;4237464;28;5748;-80
2023/05/06 05:58:01;;;;;;;;;;;;;;;20.57;58.20;96931.63;4240049;27;5662;-80
2023/05/06 06:00:05;;;;;;;;;;;;;;;20.64;57.65;96940.31;4242080;27;5659;-79
2023/05/06 06:02:08;;;;;;;;;;;;;;;20.72;57.55;96930.94;4241056;28;5713;-81
2023/05/06 06:04:11;;;;;;;;;;;;;;;20.77;57.77;96942.56;4231475;28;6331;-81
2023/05/06 06:06:15;;;;;;;;;;;;;;;20.82;57.65;96939.91;4235751;28;5667;-81
2023/05/06 06:08:18;;;;;;;;;;;;;;;20.86;57.81;96938.38;4236434;28;5638;-79
2023/05/06 06:10:21;;;;;;;;;;;;;;;20.91;57.48;96937.59;4237647;28;5841;-80
2023/05/06 06:12:24;;;;;;;;;;;;;;;20.97;57.48;96941.97;4241710;28;5655;-80
2023/05/06 06:14:27;;;;;;;;;;;;;;;21.01;57.78;96936.88;4242152;28;5745;-81
2023/05/06 06:16:30;;;;;;;;;;;;;;;21.08;57.62;96937.47;4244101;28;5650;-81
2023/05/06 06:18:33;;;;;;;;;;;;;;;21.11;57.38;96940.47;4242058;28;5661;-80
2023/05/06 06:20:37;;;;;;;;;;;;;;;21.07;57.38;96938.56;4239276;28;5638;-82
2023/05/06 06:22:41;;;;;;;;;;;;;;;21.11;57.29;96935.09;4234652;28;5650;-81
2023/05/06 06:24:44;;;;;;;;;;;;;;;21.17;57.35;96935.91;4232746;28;5856;-81
2023/05/06 06:26:48;;;;;;;;;;;;;;;21.22;57.37;96946.72;4233525;28;6323;-81
2023/05/06 06:28:50;;;;;;;;;;;;;;;21.26;56.91;96938.97;4231476;28;5690;-79
2023/05/06 06:30:53;;;;;;;;;;;;;;;21.30;57.18;96940.91;4231538;28;5715;-80
2023/05/06 06:32:57;;;;;;;;;;;;;;;21.32;57.20;96935.28;4230489;28;5686;-80
2023/05/06 06:35:00;;;;;;;;;;;;;;;21.31;56.96;96939.84;4230189;27;5658;-76
2023/05/06 06:37:03;;;;;;;;;;;;;;;21.33;57.09;96928.81;4235301;28;5669;-74
2023/05/06 06:39:10;;;;;;;;;;;;;;;21.33;56.87;96934.19;4235576;28;5681;-75
2023/05/06 06:41:15;;;;;;;;;;;;;;;21.31;56.96;96937.16;4226085;27;5703;-76
2023/05/06 06:43:19;;;;;;;;;;;;;;;21.29;56.86;96936.56;4242727;27;5733;-75
2023/05/06 06:45:23;;;;;;;;;;;;;;;21.29;56.88;96936.56;4235214;28;5634;-78
2023/05/06 06:47:25;;;;;;;;;;;;;;;21.30;56.83;96937.41;4235167;28;5737;-78
2023/05/06 06:49:30;;;;;;;;;;;;;;;21.29;57.00;96931.19;4236154;28;5661;-79
2023/05/06 06:51:33;;;;;;;;;;;;;;;21.30;56.78;96938.22;4235948;28;5778;-77
2023/05/06 06:53:36;;;;;;;;;;;;;;;21.29;56.92;96936.56;4235660;28;5646;-76
2023/05/06 06:55:43;;;;;;;;;;;;;;;21.23;57.05;96932.22;4238121;28;6853;-82
2023/05/06 06:57:46;;;;;;;;;;;;;;;21.22;56.94;96934.09;4240465;28;5780;-81
2023/05/06 06:59:52;;;;;;;;;;;;;;;21.22;56.93;96930.59;4250354;27;5707;-81
2023/05/06 07:01:55;;;;;;;;;;;;;;;21.20;56.84;96927.38;4238494;27;6347;-80
2023/05/06 07:03:59;;;;;;;;;;;;;;;21.23;56.95;96932.22;4235913;28;5772;-80
2023/05/06 07:06:01;;;;;;;;;;;;;;;21.19;57.20;96936.50;4235773;27;5835;-80
2023/05/06 07:08:04;;;;;;;;;;;;;;;21.18;57.31;96938.38;4235746;28;6471;-80
2023/05/06 07:10:08;;;;;;;;;;;;;;;21.17;56.81;96939.41;4235142;27;5638;-80
2023/05/06 07:12:14;;;;;;;;;;;;;;;21.14;57.01;96939.13;4235252;28;5669;-83
2023/05/06 07:14:16;;;;;;;;;;;;;;;21.15;57.20;96940.75;4238161;28;5658;-83
2023/05/06 07:16:19;;;;;;;;;;;;;;;21.14;57.04;96942.63;4246683;27;5785;-82
2023/05/06 07:18:22;;;;;;;;;;;;;;;21.11;56.83;96942.34;4243424;28;5658;-80
2023/05/06 07:20:25;;;;;;;;;;;;;;;21.12;56.47;96946.66;4239102;28;5661;-79
2023/05/06 07:22:28;;;;;;;;;;;;;;;21.12;56.72;96942.06;4238168;27;5667;-81
2023/05/06 07:24:31;;;;;;;;;;;;;;;21.13;56.34;96940.19;4235191;28;5817;-79
2023/05/06 07:26:35;;;;;;;;;;;;;;;21.12;56.51;96941.25;4234549;28;5654;-82
2023/05/06 07:28:39;;;;;;;;;;;;;;;21.09;56.27;96942.59;4234405;28;6252;-81
2023/05/06 07:30:43;;;;;;;;;;;;;;;21.08;56.18;96940.16;4234086;28;5777;-79
2023/05/06 07:32:46;;;;;;;;;;;;;;;21.04;56.40;96936.34;4239870;27;5624;-80
2023/05/06 07:34:49;;;;;;;;;;;;;;;21.05;56.54;96946.03;4237732;27;5762;-80
2023/05/06 07:36:52;;;;;;;;;;;;;;;21.03;56.03;96940.09;4234343;28;6323;-76
2023/05/06 07:38:55;;;;;;;;;;;;;;;21.06;56.18;96936.91;4231056;28;6436;-79
2023/05/06 07:40:57;;;;;;;;;;;;;;;21.07;56.27;96935.88;4232007;28;5654;-76
2023/05/06 07:43:00;;;;;;;;;;;;;;;21.05;56.08;96935.28;4231424;28;5737;-78
2023/05/06 07:45:06;;;;;;;;;;;;;;;21.03;55.86;96937.41;4233593;28;6387;-77
2023/05/06 07:47:09;;;;;;;;;;;;;;;21.04;55.79;96939.03;4233336;28;5658;-77
2023/05/06 07:49:12;;;;;;;;;;;;;;;21.07;55.99;96943.94;4233916;27;5650;-76
2023/05/06 07:51:16;;;;;;;;;;;;;;;21.08;55.56;96934.78;4233074;28;5646;-77
2023/05/06 07:53:19;;;;;;;;;;;;;;;21.10;55.68;96938.84;4233880;27;5667;-83
2023/05/06 07:55:22;;;;;;;;;;;;;;;21.10;55.71;96932.66;4232732;28;5600;-80
2023/05/06 07:57:24;;;;;;;;;;;;;;;21.11;55.34;96942.34;4229921;28;5647;-78
2023/05/06 07:59:27;;;;;;;;;;;;;;;21.13;55.40;96938.31;4233388;28;5797;-82
2023/05/06 08:01:31;;;;;;;;;;;;;;;21.16;55.30;96945.06;4233166;28;6022;-82
2023/05/06 08:03:35;;;;;;;;;;;;;;;21.16;55.28;96945.88;4233549;27;5650;-81
2023/05/06 08:05:38;;;;;;;;;;;;;;;21.15;55.52;96943.44;4233664;27;5669;-83
2023/05/06 08:07:41;;;;;;;;;;;;;;;21.16;54.95;96937.78;4233925;27;5734;-82
2023/05/06 08:09:44;;;;;;;;;;;;;;;21.14;54.97;96936.44;4233117;27;5733;-81
2023/05/06 08:11:46;;;;;;;;;;;;;;;21.13;54.96;96932.13;4233169;28;5638;-79
2023/05/06 08:13:49;;;;;;;;;;;;;;;21.13;55.09;96932.94;4232502;28;5786;-79
2023/05/06 08:15:53;;;;;;;;;;;;;;;21.15;54.78;96924.63;4232235;27;6645;-80
2023/05/06 08:17:58;;;;;;;;;;;;;;;21.16;54.74;96932.41;4234150;27;5659;-80
2023/05/06 08:20:14;;;;;;;;;;;;;;;21.19;54.45;96923.88;4229653;28;6491;-80
2023/05/06 08:22:16;;;;;;;;;;;;;;;21.22;54.40;96931.41;4231053;28;5622;-80
2023/05/06 08:24:20;;;;;;;;;;;;;;;21.23;54.42;96929.53;4231491;28;5613;-79
2023/05/06 08:26:23;;;;;;;;;;;;;;;21.22;54.51;96926.03;4225836;28;5857;-81
2023/05/06 08:28:28;;;;;;;;;;;;;;;21.22;54.68;96922.53;4229190;28;5666;-81
2023/05/06 08:30:31;;;;;;;;;;;;;;;21.22;54.59;96917.97;4233445;28;5662;-80
2023/05/06 08:32:34;;;;;;;;;;;;;;;21.23;54.19;96926.84;4233938;28;5832;-80
2023/05/06 08:34:38;;;;;;;;;;;;;;;21.26;54.47;96926.34;4234055;28;5782;-80
2023/05/06 08:36:41;;;;;;;;;;;;;;;21.28;53.97;96916.13;4234283;27;5658;-81
2023/05/06 08:38:49;;;;;;;;;;;;;;;21.30;53.96;96921.28;4234183;28;5665;-80
2023/05/06 08:40:53;;;;;;;;;;;;;;;21.28;53.96;96924.22;4232950;28;5612;-80
2023/05/06 08:42:59;;;;;;;;;;;;;;;21.27;53.95;96919.09;4234142;28;5658;-81
2023/05/06 08:45:02;;;;;;;;;;;;;;;21.30;53.99;96921.28;4234109;28;5721;-80
2023/05/06 08:47:05;;;;;;;;;;;;;;;21.31;53.97;96915.66;4235856;28;5646;-80
2023/05/06 08:49:08;;;;;;;;;;;;;;;21.35;53.63;96918.63;4237204;27;5737;-79
2023/05/06 08:51:14;;;;;;;;;;;;;;;21.37;54.15;96911.09;4228488;28;5641;-80
2023/05/06 08:53:17;;;;;;;;;;;;;;;21.37;53.81;96914.59;4237213;28;5744;-80
2023/05/06 08:55:21;;;;;;;;;;;;;;;21.40;53.82;96921.31;4237250;28;5630;-79
2023/05/06 08:57:25;;;;;;;;;;;;;;;21.43;53.72;96916.25;4237323;28;5661;-80
2023/05/06 08:59:31;;;;;;;;;;;;;;;21.45;53.79;96903.38;4236689;27;6357;-79
2023/05/06 09:01:35;;;;;;;;;;;;;;;21.46;53.75;96910.34;4235773;28;5730;-80
2023/05/06 09:03:38;;;;;;;;;;;;;;;21.49;53.86;96907.13;4236989;27;5634;-81
2023/05/06 09:05:41;;;;;;;;;;;;;;;21.52;53.73;96908.53;4236845;28;7222;-80
2023/05/06 09:07:45;;;;;;;;;;;;;;;21.56;53.58;96911.50;4236970;27;5662;-81
2023/05/06 09:09:48;;;;;;;;;;;;;;;21.59;53.73;96902.91;4236733;28;5642;-80
2023/05/06 09:11:53;;;;;;;;;;;;;;;21.59;53.51;96908.28;4236882;28;5682;-80
2023/05/06 09:14:11;;;;;;;;;;;;;;;21.60;53.42;96910.69;4236930;28;5825;-80
2023/05/06 09:16:28;;;;;;;;;;;;;;;21.61;53.69;96909.63;4219788;28;5847;-80
2023/05/06 09:18:32;;;;;;;;;;;;;;;21.65;53.15;96901.88;4231273;28;5653;-81
2023/05/06 09:20:35;;;;;;;;;;;;;;;21.67;53.51;96902.41;4236728;28;5646;-80
2023/05/06 09:22:39;;;;;;;;;;;;;;;21.72;52.94;96902.44;4236606;28;6337;-80
2023/05/06 09:24:43;;;;;;;;;;;;;;;21.75;53.12;96905.44;4236546;28;5638;-81
2023/05/06 09:26:47;;;;;;;;;;;;;;;21.74;53.03;96901.09;4236581;28;5729;-81
2023/05/06 09:28:50;;;;;;;;;;;;;;;21.71;52.95;96898.13;4236310;28;5654;-80
2023/05/06 09:30:53;;;;;;;;;;;;;;;21.71;52.87;96895.44;4236170;28;5662;-80
2023/05/06 09:32:57;;;;;;;;;;;;;;;21.70;52.68;96899.19;4236632;27;5646;-80
2023/05/06 09:35:00;;;;;;;;;;;;;;;21.72;52.92;96891.66;4236537;28;5782;-80
2023/05/06 09:37:03;;;;;;;;;;;;;;;21.73;52.88;96879.81;4236361;28;5753;-80
2023/05/06 09:39:07;;;;;;;;;;;;;;;21.77;52.40;96895.22;4236470;28;5750;-80
2023/05/06 09:41:12;;;;;;;;;;;;;;;21.79;52.64;96881.47;4236395;28;5662;-80
2023/05/06 09:43:15;;;;;;;;;;;;;;;21.80;52.42;96883.09;4236352;27;5658;-80
2023/05/06 09:45:18;;;;;;;;;;;;;;;21.80;52.39;96875.03;4236271;28;5854;-80
2023/05/06 09:47:22;;;;;;;;;;;;;;;21.79;52.33;96876.09;4235877;28;5669;-81
2023/05/06 09:49:26;;;;;;;;;;;;;;;21.83;52.08;96877.19;4236247;28;6590;-80
2023/05/06 09:51:31;;;;;;;;;;;;;;;21.88;52.46;96874.53;4236220;28;5892;-80
2023/05/06 09:53:35;;;;;;;;;;;;;;;21.90;52.14;96880.47;4236372;28;5649;-81
2023/05/06 09:55:39;;;;;;;;;;;;;;;21.90;51.95;96868.88;4236191;28;5654;-80
2023/05/06 09:57:44;;;;;;;;;;;;;;;21.91;51.82;96871.31;4235962;28;6563;-80
2023/05/06 09:59:48;;;;;;;;;;;;;;;21.92;51.74;96869.41;4235656;28;5657;-80
2023/05/06 10:01:52;;;;;;;;;;;;;;;21.92;51.84;96864.03;4235892;28;5646;-80
2023/05/06 10:03:56;;;;;;;;;;;;;;;21.91;52.10;96860.53;4236116;28;5698;-79
2023/05/06 10:06:01;;;;;;;;;;;;;;;21.92;51.74;96867.53;4235747;28;5741;-80
2023/05/06 10:08:06;;;;;;;;;;;;;;;21.92;51.92;96869.41;4235713;28;7143;-82
2023/05/06 10:10:13;;;;;;;;;;;;;;;21.91;51.90;96855.16;4235613;28;6481;-81
2023/05/06 10:12:16;;;;;;;;;;;;;;;21.90;51.64;96858.13;4228293;28;5658;-81
2023/05/06 10:14:21;;;;;;;;;;;;;;;21.88;51.63;96858.38;4235958;28;5737;-81
2023/05/06 10:16:23;;;;;;;;;;;;;;;21.91;51.62;96851.66;4235698;27;5653;-80
2023/05/06 10:18:29;;;;;;;;;;;;;;;21.93;51.88;96844.94;4235090;28;5654;-80
2023/05/06 10:20:35;;;;;;;;;;;;;;;21.94;51.73;96846.53;4235944;28;5084;-80
2023/05/06 10:22:46;;;;;;;;;;;;;;;21.94;51.36;96849.25;4235884;28;5761;-80
2023/05/06 10:24:55;;;;;;;;;;;;;;;21.95;51.35;96839.28;4235877;27;5642;-80
2023/05/06 10:27:02;;;;;;;;;;;;;;;21.95;51.41;96842.78;4235834;28;5776;-80
2023/05/06 10:29:09;;;;;;;;;;;;;;;21.95;51.60;96834.72;4235812;28;5662;-80
2023/05/06 10:31:14;;;;;;;;;;;;;;;21.95;51.27;96840.09;4218842;28;5762;-79
2023/05/06 10:33:17;;;;;;;;;;;;;;;21.93;51.22;96834.16;4235932;28;5773;-80
2023/05/06 10:35:27;;;;;;;;;;;;;;;21.94;51.13;96835.78;4235398;28;5645;-81
2023/05/06 10:37:31;;;;;;;;;;;;;;;21.96;51.60;96832.81;4235713;28;5658;-80
2023/05/06 10:39:35;;;;;;;;;;;;;;;22.00;51.56;96828.56;4235590;28;5650;-81
2023/05/06 10:41:37;;;;;;;;;;;;;;;22.04;51.26;96830.44;4235181;28;5638;-81
2023/05/06 10:43:41;;;;;;;;;;;;;;;22.08;51.55;96833.44;4235366;28;5650;-81
2023/05/06 10:46:02;;;;;;;;;;;;;;;22.12;51.36;96825.66;4235128;28;5756;-80
2023/05/06 10:48:09;;;;;;;;;;;;;;;22.14;50.96;96820.81;4235255;28;5842;-81
2023/05/06 10:50:19;;;;;;;;;;;;;;;22.15;51.43;96820.53;4226877;28;5667;-80
2023/05/06 10:52:22;;;;;;;;;;;;;;;22.18;51.21;96811.91;4234932;28;5880;-81
2023/05/06 10:54:25;;;;;;;;;;;;;;;22.22;51.25;96814.91;4235050;28;5654;-80
2023/05/06 10:56:30;;;;;;;;;;;;;;;22.23;51.12;96811.94;4235121;28;5794;-80
2023/05/06 10:58:36;;;;;;;;;;;;;;;22.26;51.31;96813.28;4235271;27;5633;-81
2023/05/06 11:00:39;;;;;;;;;;;;;;;22.28;51.18;96813.81;4234785;27;5646;-82
2023/05/06 11:02:42;;;;;;;;;;;;;;;22.29;51.11;96810.06;4234963;28;5669;-81
2023/05/06 11:04:52;;;;;;;;;;;;;;;22.26;51.16;96803.31;4235216;28;5657;-82
2023/05/06 11:07:07;;;;;;;;;;;;;;;22.30;51.00;96800.88;4234960;28;5651;-80
2023/05/06 11:09:17;;;;;;;;;;;;;;;22.31;51.24;96805.19;4217626;28;5679;-81
2023/05/06 11:11:51;;;;;;;;;;;;;;;22.32;51.01;96801.47;4234802;28;6888;-82
2023/05/06 11:13:54;;;;;;;;;;;;;;;22.34;51.02;96796.59;4231062;28;5128;-81
2023/05/06 11:15:59;;;;;;;;;;;;;;;22.35;51.06;96795.53;4234719;28;6407;-81
2023/05/06 11:18:41;;;;;;;;;;;;;;;22.36;50.93;96797.13;4234882;28;5666;-83
2023/05/06 11:20:45;;;;;;;;;;;;;;;22.35;50.72;96792.84;4234842;28;5646;-82
2023/05/06 11:22:49;;;;;;;;;;;;;;;22.34;50.72;96792.03;4234553;28;5650;-81
2023/05/06 11:24:52;;;;;;;;;;;;;;;22.37;50.69;96788.78;4234620;28;5732;-81
2023/05/06 11:26:56;;;;;;;;;;;;;;;22.41;50.89;96783.66;4234514;28;6340;-81
2023/05/06 11:29:00;;;;;;;;;;;;;;;22.42;50.42;96793.34;4234200;28;5766;-82
2023/05/06 11:31:03;;;;;;;;;;;;;;;22.42;50.27;96785.28;4234406;27;5667;-81
2023/05/06 11:33:08;;;;;;;;;;;;;;;22.42;50.31;96785.28;4234761;27;5674;-82
2023/05/06 11:35:11;;;;;;;;;;;;;;;22.42;50.35;96781.78;4234543;28;5713;-81
2023/05/06 11:37:25;;;;;;;;;;;;;;;22.43;50.16;96773.47;4234752;28;5646;-81
2023/05/06 11:39:30;;;;;;;;;;;;;;;22.45;50.34;96774.00;4234334;28;5831;-82
2023/05/06 11:41:39;;;;;;;;;;;;;;;22.47;49.96;96779.91;4234657;28;5728;-82
2023/05/06 11:43:46;;;;;;;;;;;;;;;22.51;50.15;96775.59;4234624;28;6375;-82
2023/05/06 11:45:49;;;;;;;;;;;;;;;22.53;49.83;96768.03;4234485;28;5643;-82
2023/05/06 11:47:54;;;;;;;;;;;;;;;22.57;49.71;96768.34;4234645;28;5649;-82
2023/05/06 11:49:57;;;;;;;;;;;;;;;22.60;49.83;96760.50;4233374;28;5653;-82
2023/05/06 11:52:00;;;;;;;;;;;;;;;22.64;49.66;96769.66;4234605;28;5650;-82
2023/05/06 11:54:07;;;;;;;;;;;;;;;22.68;49.47;96769.94;4234477;27;5781;-82
2023/05/06 11:56:09;;;;;;;;;;;;;;;22.71;49.83;96763.19;4234673;28;5646;-82
2023/05/06 11:58:15;;;;;;;;;;;;;;;22.72;49.43;96770.19;4234481;27;5641;-82
2023/05/06 12:00:20;;;;;;;;;;;;;;;22.73;49.61;96766.41;4234142;28;5729;-82
2023/05/06 12:02:23;;;;;;;;;;;;;;;22.74;49.28;96760.75;4234029;28;5767;-82
2023/05/06 12:04:26;;;;;;;;;;;;;;;22.74;49.20;96773.44;4234409;28;5669;-82
2023/05/06 12:06:34;;;;;;;;;;;;;;;22.69;49.47;96758.09;4234700;28;5827;-82
2023/05/06 12:08:37;;;;;;;;;;;;;;;22.73;49.06;96759.16;4234307;28;5654;-82
2023/05/06 12:10:42;;;;;;;;;;;;;;;22.75;48.91;96756.19;4233979;28;5646;-82
2023/05/06 12:12:45;;;;;;;;;;;;;;;22.76;48.77;96755.91;4234503;28;5649;-82
2023/05/06 12:14:49;;;;;;;;;;;;;;;22.78;48.63;96764.53;4234417;28;5634;-82
2023/05/06 12:16:52;;;;;;;;;;;;;;;22.80;48.94;96757.00;4234235;27;5650;-81
2023/05/06 12:18:58;;;;;;;;;;;;;;;22.79;48.85;96759.97;4233537;28;5713;-82
2023/05/06 12:21:02;;;;;;;;;;;;;;;22.79;48.49;96755.38;4234858;28;5861;-81
2023/05/06 12:23:06;;;;;;;;;;;;;;;22.79;48.35;96755.38;4238026;28;5728;-82
2023/05/06 12:25:16;;;;;;;;;;;;;;;22.78;48.48;96742.19;4237915;28;5938;-82
2023/05/06 12:27:33;;;;;;;;;;;;;;;22.79;48.43;96744.59;4237792;28;5709;-82
2023/05/06 12:29:36;;;;;;;;;;;;;;;22.81;48.24;96749.72;4237392;28;5762;-82
2023/05/06 12:31:39;;;;;;;;;;;;;;;22.82;47.86;96749.44;4237258;28;5638;-81
2023/05/06 12:33:47;;;;;;;;;;;;;;;22.83;48.01;96740.31;4237348;28;5646;-81
2023/05/06 12:35:51;;;;;;;;;;;;;;;22.86;47.73;96742.44;4237534;28;6451;-82
2023/05/06 12:37:54;;;;;;;;;;;;;;;22.87;47.83;96735.16;4237486;28;5837;-82
2023/05/06 12:39:57;;;;;;;;;;;;;;;22.88;47.99;96744.91;4237414;28;5850;-82
2023/05/06 12:42:01;;;;;;;;;;;;;;;22.88;47.62;96734.91;4237486;28;5776;-82
2023/05/06 12:44:32;;;;;;;;;;;;;;;22.89;47.53;96743.81;4237480;28;5669;-82
2023/05/06 12:46:35;;;;;;;;;;;;;;;22.91;47.51;96742.44;4237209;27;5890;-82
2023/05/06 12:48:38;;;;;;;;;;;;;;;22.94;47.25;96736.50;4237493;28;5654;-82
2023/05/06 12:50:43;;;;;;;;;;;;;;;22.99;47.36;96740.25;4237359;28;5717;-82
2023/05/06 12:52:46;;;;;;;;;;;;;;;23.00;47.57;96745.41;4237188;28;5646;-82
2023/05/06 12:54:51;;;;;;;;;;;;;;;23.01;47.37;96736.22;4237385;28;5782;-82
2023/05/06 12:56:54;;;;;;;;;;;;;;;23.06;47.23;96735.41;4237421;27;5776;-82
2023/05/06 12:58:59;;;;;;;;;;;;;;;23.07;47.17;96732.41;4236899;28;5646;-82
2023/05/06 13:01:06;;;;;;;;;;;;;;;23.08;47.07;96730.53;4236939;28;5649;-82
2023/05/06 13:03:12;;;;;;;;;;;;;;;23.08;46.64;96723.25;4228972;28;5634;-82
2023/05/06 13:05:15;;;;;;;;;;;;;;;23.08;46.94;96715.16;4236908;27;5649;-82
2023/05/06 13:07:18;;;;;;;;;;;;;;;23.10;46.70;96718.38;4237121;27;6373;-81
2023/05/06 13:09:21;;;;;;;;;;;;;;;23.11;46.94;96717.34;4236849;28;5655;-82
2023/05/06 13:11:24;;;;;;;;;;;;;;;23.12;46.51;96707.34;4237104;28;5753;-83
2023/05/06 13:13:27;;;;;;;;;;;;;;;23.17;46.69;96718.91;4236858;28;6460;-81
2023/05/06 13:15:30;;;;;;;;;;;;;;;23.22;46.11;96704.63;4237105;28;5661;-82
2023/05/06 13:17:34;;;;;;;;;;;;;;;23.24;46.23;96705.16;4236719;28;5646;-83
2023/05/06 13:19:37;;;;;;;;;;;;;;;23.26;46.46;96708.38;4236797;28;5635;-82
2023/05/06 13:21:41;;;;;;;;;;;;;;;23.28;46.40;96703.50;4236638;28;5650;-82
2023/05/06 13:23:46;;;;;;;;;;;;;;;23.29;46.05;96702.41;4236824;28;5753;-82
2023/05/06 13:25:49;;;;;;;;;;;;;;;23.29;46.20;96698.91;4236723;28;5817;-82
2023/05/06 13:28:06;;;;;;;;;;;;;;;23.27;46.48;96695.69;4236808;28;5654;-82
2023/05/06 13:30:09;;;;;;;;;;;;;;;23.28;46.70;96702.69;4236346;28;5767;-82
2023/05/06 13:32:13;;;;;;;;;;;;;;;23.29;46.34;96704.31;4227765;28;5650;-81
2023/05/06 13:34:18;;;;;;;;;;;;;;;23.29;46.66;96699.72;4236607;27;5641;-82
2023/05/06 13:36:21;;;;;;;;;;;;;;;23.29;46.38;96697.03;4236497;28;6339;-82
2023/05/06 13:38:24;;;;;;;;;;;;;;;23.29;46.55;96699.72;4236640;28;5717;-83
2023/05/06 13:40:27;;;;;;;;;;;;;;;23.29;46.60;96696.22;4236641;28;5638;-82
2023/05/06 13:42:30;;;;;;;;;;;;;;;23.28;46.90;96691.91;4236977;27;5743;-82
2023/05/06 13:44:32;;;;;;;;;;;;;;;23.28;46.59;96683.81;4236344;28;5690;-82
2023/05/06 13:46:35;;;;;;;;;;;;;;;23.29;46.58;96685.44;4236197;28;5752;-82
2023/05/06 13:48:38;;;;;;;;;;;;;;;23.30;46.79;96685.16;4236322;28;5650;-81
2023/05/06 13:50:44;;;;;;;;;;;;;;;23.36;46.62;96688.66;4236249;28;5753;-82
2023/05/06 13:52:47;;;;;;;;;;;;;;;23.32;46.59;96677.56;4236353;28;5811;-82
2023/05/06 13:54:50;;;;;;;;;;;;;;;23.33;46.46;96678.38;4236473;28;5836;-81
2023/05/06 13:56:53;;;;;;;;;;;;;;;23.31;46.50;96677.84;4236185;28;5642;-82
2023/05/06 13:58:56;;;;;;;;;;;;;;;23.34;46.34;96674.63;4236136;28;5745;-82
2023/05/06 14:00:58;;;;;;;;;;;;;;;23.34;46.36;96680.03;4236286;28;5201;-81
2023/05/06 14:03:01;;;;;;;;;;;;;;;23.34;45.67;96670.03;4235980;28;6359;-81
2023/05/06 14:05:06;;;;;;;;;;;;;;;23.37;46.03;96669.47;4236240;28;5727;-82
2023/05/06 14:07:10;;;;;;;;;;;;;;;23.37;45.61;96671.38;4236033;28;6107;-81
2023/05/06 14:09:13;;;;;;;;;;;;;;;23.37;46.01;96668.69;4228074;28;5658;-81
2023/05/06 14:11:16;;;;;;;;;;;;;;;23.38;45.44;96676.47;4235831;28;5642;-82
2023/05/06 14:13:19;;;;;;;;;;;;;;;23.37;45.70;96671.38;4235884;28;5654;-82
2023/05/06 14:15:22;;;;;;;;;;;;;;;23.34;45.48;96675.44;4235666;28;5650;-81
2023/05/06 14:17:24;;;;;;;;;;;;;;;23.36;45.37;96672.47;4235730;28;7663;-82
2023/05/06 14:19:28;;;;;;;;;;;;;;;23.36;45.32;96675.16;4236085;28;5647;-82
2023/05/06 14:21:31;;;;;;;;;;;;;;;23.35;45.13;96673.53;4235835;28;5102;-82
2023/05/06 14:23:36;;;;;;;;;;;;;;;23.37;45.59;96674.06;4235841;28;5646;-82
2023/05/06 14:25:41;;;;;;;;;;;;;;;23.36;45.04;96667.06;4235649;28;5760;-81
2023/05/06 14:27:44;;;;;;;;;;;;;;;23.38;45.46;96660.31;4235739;28;5666;-81
2023/05/06 14:29:48;;;;;;;;;;;;;;;23.39;45.33;96666.50;4235798;27;5653;-81
2023/05/06 14:31:52;;;;;;;;;;;;;;;23.38;44.95;96665.69;4235509;28;5702;-81
2023/05/06 14:33:55;;;;;;;;;;;;;;;23.39;44.87;96671.91;4235673;27;5745;-81
2023/05/06 14:35:58;;;;;;;;;;;;;;;23.38;44.91;96670.28;4235614;28;5642;-81
2023/05/06 14:38:02;;;;;;;;;;;;;;;23.40;44.62;96684.28;4235293;28;6551;-81
2023/05/06 14:40:08;;;;;;;;;;;;;;;23.38;44.69;96681.88;4235405;28;5099;-81
2023/05/06 14:42:11;;;;;;;;;;;;;;;23.37;44.88;96682.16;4227373;28;6537;-81
2023/05/06 14:44:14;;;;;;;;;;;;;;;23.34;45.11;96675.44;4234777;28;5669;-81
2023/05/06 14:46:17;;;;;;;;;;;;;;;23.32;45.09;96682.97;4235239;28;5650;-80
2023/05/06 14:48:20;;;;;;;;;;;;;;;23.29;44.62;96683.53;4235450;28;5653;-80
2023/05/06 14:50:23;;;;;;;;;;;;;;;23.28;45.07;96686.50;4235572;28;5667;-81
2023/05/06 14:52:26;;;;;;;;;;;;;;;23.27;45.01;96684.91;4235204;28;5658;-82
2023/05/06 14:54:29;;;;;;;;;;;;;;;23.23;44.76;96673.88;4235402;28;5852;-81
2023/05/06 14:56:33;;;;;;;;;;;;;;;23.19;45.19;96665.50;4235308;28;5746;-81
2023/05/06 14:58:38;;;;;;;;;;;;;;;23.15;45.09;96656.38;4235137;28;5654;-82
2023/05/06 15:00:40;;;;;;;;;;;;;;;23.13;45.29;96646.94;4234736;28;5760;-82
2023/05/06 15:02:43;;;;;;;;;;;;;;;23.11;45.27;96652.63;4235069;28;5643;-82
2023/05/06 15:04:46;;;;;;;;;;;;;;;23.11;45.31;96660.72;4235063;28;5642;-82
2023/05/06 15:06:49;;;;;;;;;;;;;;;23.15;45.06;96661.75;4235160;28;5649;-81